sensor_id;sensor_type;location;lat;lon;timestamp;P1;durP1;ratioP1;P2;durP2;ratioP2
16478;SDS011;8350;52.316;10.530;2023-03-01T00:01:14;13.07;;;7.25;;
16478;SDS011;8350;52.316;10.530;2023-03-01T00:03:44;10.18;;;6.53;;
16478;SDS011;8350;52.316;10.530;2023-03-01T00:06:13;11.98;;;6.88;;
16478;SDS011;8350;52.316;10.530;2023-03-01T00:08:40;7.50;;;6.10;;
16478;SDS011;8350;52.316;10.530;2023-03-01T00:11:07;9.65;;;6.35;;
16478;SDS011;8350;52.316;10.530;2023-03-01T00:13:40;10.27;;;6.85;;
16478;SDS011;8350;52.316;10.530;2023-03-01T00:16:09;15.18;;;7.07;;
16478;SDS011;8350;52.316;10.530;2023-03-01T00:18:37;7.78;;;6.07;;
16478;SDS011;8350;52.316;10.530;2023-03-01T00:21:06;9.20;;;7.10;;
16478;SDS011;8350;52.316;10.530;2023-03-01T00:23:33;9.70;;;7.20;;
16478;SDS011;8350;52.316;10.530;2023-03-01T00:26:00;10.60;;;6.63;;
16478;SDS011;8350;52.316;10.530;2023-03-01T00:28:27;8.45;;;6.57;;
16478;SDS011;8350;52.316;10.530;2023-03-01T00:30:54;6.38;;;5.55;;
16478;SDS011;8350;52.316;10.530;2023-03-01T00:33:21;9.65;;;6.15;;
16478;SDS011;8350;52.316;10.530;2023-03-01T00:35:48;8.85;;;5.22;;
16478;SDS011;8350;52.316;10.530;2023-03-01T00:38:16;8.88;;;6.50;;
16478;SDS011;8350;52.316;10.530;2023-03-01T00:40:43;7.32;;;5.80;;
16478;SDS011;8350;52.316;10.530;2023-03-01T00:43:09;8.25;;;6.35;;
16478;SDS011;8350;52.316;10.530;2023-03-01T00:45:36;9.27;;;5.95;;
16478;SDS011;8350;52.316;10.530;2023-03-01T00:48:03;8.27;;;5.65;;
16478;SDS011;8350;52.316;10.530;2023-03-01T00:50:31;7.28;;;5.85;;
16478;SDS011;8350;52.316;10.530;2023-03-01T00:52:57;8.75;;;5.38;;
16478;SDS011;8350;52.316;10.530;2023-03-01T00:55:26;6.93;;;5.10;;
16478;SDS011;8350;52.316;10.530;2023-03-01T00:57:52;8.27;;;5.97;;
16478;SDS011;8350;52.316;10.530;2023-03-01T01:00:20;7.32;;;5.03;;
16478;SDS011;8350;52.316;10.530;2023-03-01T01:02:47;8.38;;;5.38;;
16478;SDS011;8350;52.316;10.530;2023-03-01T01:05:14;7.15;;;5.80;;
16478;SDS011;8350;52.316;10.530;2023-03-01T01:07:46;7.57;;;6.10;;
16478;SDS011;8350;52.316;10.530;2023-03-01T01:10:12;7.38;;;5.97;;
16478;SDS011;8350;52.316;10.530;2023-03-01T01:12:43;8.48;;;5.97;;
16478;SDS011;8350;52.316;10.530;2023-03-01T01:15:10;6.93;;;4.88;;
16478;SDS011;8350;52.316;10.530;2023-03-01T01:17:39;7.53;;;5.13;;
16478;SDS011;8350;52.316;10.530;2023-03-01T01:20:07;6.63;;;4.70;;
16478;SDS011;8350;52.316;10.530;2023-03-01T01:22:35;6.05;;;4.75;;
16478;SDS011;8350;52.316;10.530;2023-03-01T01:25:01;6.72;;;5.18;;
16478;SDS011;8350;52.316;10.530;2023-03-01T01:27:29;6.93;;;5.15;;
16478;SDS011;8350;52.316;10.530;2023-03-01T01:29:57;6.32;;;5.53;;
16478;SDS011;8350;52.316;10.530;2023-03-01T01:32:24;6.63;;;5.00;;
16478;SDS011;8350;52.316;10.530;2023-03-01T01:34:51;6.15;;;4.65;;
16478;SDS011;8350;52.316;10.530;2023-03-01T01:37:18;5.03;;;4.55;;
16478;SDS011;8350;52.316;10.530;2023-03-01T01:39:44;7.20;;;5.30;;
16478;SDS011;8350;52.316;10.530;2023-03-01T01:42:12;7.70;;;4.82;;
16478;SDS011;8350;52.316;10.530;2023-03-01T01:44:42;7.65;;;5.50;;
16478;SDS011;8350;52.316;10.530;2023-03-01T01:47:14;6.72;;;4.88;;
16478;SDS011;8350;52.316;10.530;2023-03-01T01:49:44;7.18;;;5.47;;
16478;SDS011;8350;52.316;10.530;2023-03-01T01:52:17;9.05;;;5.20;;
16478;SDS011;8350;52.316;10.530;2023-03-01T01:54:47;6.90;;;5.18;;
16478;SDS011;8350;52.316;10.530;2023-03-01T01:57:19;7.07;;;5.30;;
16478;SDS011;8350;52.316;10.530;2023-03-01T01:59:51;5.55;;;4.93;;
16478;SDS011;8350;52.316;10.530;2023-03-01T02:02:22;5.85;;;4.20;;
16478;SDS011;8350;52.316;10.530;2023-03-01T02:04:49;7.80;;;5.18;;
16478;SDS011;8350;52.316;10.530;2023-03-01T02:07:22;6.25;;;4.60;;
16478;SDS011;8350;52.316;10.530;2023-03-01T02:09:51;7.72;;;4.90;;
16478;SDS011;8350;52.316;10.530;2023-03-01T02:12:20;6.20;;;4.50;;
16478;SDS011;8350;52.316;10.530;2023-03-01T02:14:51;6.90;;;4.60;;
16478;SDS011;8350;52.316;10.530;2023-03-01T02:17:18;5.72;;;4.57;;
16478;SDS011;8350;52.316;10.530;2023-03-01T02:19:52;6.80;;;4.78;;
16478;SDS011;8350;52.316;10.530;2023-03-01T02:22:27;5.63;;;4.43;;
16478;SDS011;8350;52.316;10.530;2023-03-01T02:25:02;6.82;;;4.05;;
16478;SDS011;8350;52.316;10.530;2023-03-01T02:27:37;5.63;;;4.18;;
16478;SDS011;8350;52.316;10.530;2023-03-01T02:30:09;7.25;;;4.85;;
16478;SDS011;8350;52.316;10.530;2023-03-01T02:32:38;6.28;;;4.63;;
16478;SDS011;8350;52.316;10.530;2023-03-01T02:35:07;8.15;;;5.13;;
16478;SDS011;8350;52.316;10.530;2023-03-01T02:37:36;6.18;;;4.28;;
16478;SDS011;8350;52.316;10.530;2023-03-01T02:40:05;5.00;;;4.30;;
16478;SDS011;8350;52.316;10.530;2023-03-01T02:42:37;6.85;;;4.70;;
16478;SDS011;8350;52.316;10.530;2023-03-01T02:45:11;4.82;;;4.25;;
16478;SDS011;8350;52.316;10.530;2023-03-01T02:47:38;6.13;;;5.15;;
16478;SDS011;8350;52.316;10.530;2023-03-01T02:50:10;10.38;;;4.60;;
16478;SDS011;8350;52.316;10.530;2023-03-01T02:52:52;13.27;;;4.38;;
16478;SDS011;8350;52.316;10.530;2023-03-01T02:55:23;10.10;;;4.57;;
16478;SDS011;8350;52.316;10.530;2023-03-01T02:57:50;7.13;;;4.43;;
16478;SDS011;8350;52.316;10.530;2023-03-01T03:00:20;5.57;;;4.57;;
16478;SDS011;8350;52.316;10.530;2023-03-01T03:02:51;5.40;;;4.45;;
16478;SDS011;8350;52.316;10.530;2023-03-01T03:05:20;5.32;;;4.82;;
16478;SDS011;8350;52.316;10.530;2023-03-01T03:07:48;7.35;;;4.47;;
16478;SDS011;8350;52.316;10.530;2023-03-01T03:10:17;4.60;;;4.07;;
16478;SDS011;8350;52.316;10.530;2023-03-01T03:12:48;5.93;;;5.15;;
16478;SDS011;8350;52.316;10.530;2023-03-01T03:15:15;7.10;;;4.97;;
16478;SDS011;8350;52.316;10.530;2023-03-01T03:17:44;5.75;;;4.65;;
16478;SDS011;8350;52.316;10.530;2023-03-01T03:20:11;6.07;;;5.25;;
16478;SDS011;8350;52.316;10.530;2023-03-01T03:22:43;6.43;;;5.07;;
16478;SDS011;8350;52.316;10.530;2023-03-01T03:25:10;10.27;;;5.63;;
16478;SDS011;8350;52.316;10.530;2023-03-01T03:27:38;6.68;;;4.78;;
16478;SDS011;8350;52.316;10.530;2023-03-01T03:30:06;7.57;;;4.93;;
16478;SDS011;8350;52.316;10.530;2023-03-01T03:32:34;7.57;;;4.78;;
16478;SDS011;8350;52.316;10.530;2023-03-01T03:35:04;5.45;;;4.45;;
16478;SDS011;8350;52.316;10.530;2023-03-01T03:37:34;6.38;;;5.10;;
16478;SDS011;8350;52.316;10.530;2023-03-01T03:40:20;6.50;;;4.30;;
16478;SDS011;8350;52.316;10.530;2023-03-01T03:42:46;8.27;;;5.43;;
16478;SDS011;8350;52.316;10.530;2023-03-01T03:45:13;9.57;;;5.30;;
16478;SDS011;8350;52.316;10.530;2023-03-01T03:47:41;5.80;;;4.60;;
16478;SDS011;8350;52.316;10.530;2023-03-01T03:50:10;6.55;;;4.90;;
16478;SDS011;8350;52.316;10.530;2023-03-01T03:52:38;7.60;;;5.13;;
16478;SDS011;8350;52.316;10.530;2023-03-01T03:55:06;8.73;;;5.60;;
16478;SDS011;8350;52.316;10.530;2023-03-01T03:57:35;11.32;;;5.90;;
16478;SDS011;8350;52.316;10.530;2023-03-01T04:00:03;7.57;;;5.20;;
16478;SDS011;8350;52.316;10.530;2023-03-01T04:02:37;7.32;;;5.45;;
16478;SDS011;8350;52.316;10.530;2023-03-01T04:05:05;7.03;;;5.30;;
16478;SDS011;8350;52.316;10.530;2023-03-01T04:07:34;6.90;;;5.22;;
16478;SDS011;8350;52.316;10.530;2023-03-01T04:10:02;7.10;;;5.03;;
16478;SDS011;8350;52.316;10.530;2023-03-01T04:12:29;6.28;;;4.63;;
16478;SDS011;8350;52.316;10.530;2023-03-01T04:14:59;7.93;;;4.50;;
16478;SDS011;8350;52.316;10.530;2023-03-01T04:17:26;6.18;;;4.43;;
16478;SDS011;8350;52.316;10.530;2023-03-01T04:19:52;6.32;;;4.35;;
16478;SDS011;8350;52.316;10.530;2023-03-01T04:22:19;5.95;;;4.88;;
16478;SDS011;8350;52.316;10.530;2023-03-01T04:24:48;7.13;;;5.22;;
16478;SDS011;8350;52.316;10.530;2023-03-01T04:27:15;7.05;;;5.13;;
16478;SDS011;8350;52.316;10.530;2023-03-01T04:29:41;8.57;;;4.88;;
16478;SDS011;8350;52.316;10.530;2023-03-01T04:32:08;6.13;;;4.75;;
16478;SDS011;8350;52.316;10.530;2023-03-01T04:34:35;5.60;;;4.38;;
16478;SDS011;8350;52.316;10.530;2023-03-01T04:37:02;7.38;;;5.00;;
16478;SDS011;8350;52.316;10.530;2023-03-01T04:39:29;10.25;;;5.75;;
16478;SDS011;8350;52.316;10.530;2023-03-01T04:41:59;5.78;;;5.22;;
16478;SDS011;8350;52.316;10.530;2023-03-01T04:44:26;8.43;;;5.70;;
16478;SDS011;8350;52.316;10.530;2023-03-01T04:46:53;4.85;;;4.30;;
16478;SDS011;8350;52.316;10.530;2023-03-01T04:49:19;7.68;;;5.70;;
16478;SDS011;8350;52.316;10.530;2023-03-01T04:51:46;8.88;;;5.78;;
16478;SDS011;8350;52.316;10.530;2023-03-01T04:54:13;9.13;;;5.63;;
16478;SDS011;8350;52.316;10.530;2023-03-01T04:56:41;7.13;;;5.47;;
16478;SDS011;8350;52.316;10.530;2023-03-01T04:59:09;8.15;;;5.05;;
16478;SDS011;8350;52.316;10.530;2023-03-01T05:01:37;6.25;;;5.18;;
16478;SDS011;8350;52.316;10.530;2023-03-01T05:04:07;7.00;;;5.45;;
16478;SDS011;8350;52.316;10.530;2023-03-01T05:06:38;6.95;;;5.35;;
16478;SDS011;8350;52.316;10.530;2023-03-01T05:09:05;7.32;;;5.63;;
16478;SDS011;8350;52.316;10.530;2023-03-01T05:11:32;6.97;;;5.22;;
16478;SDS011;8350;52.316;10.530;2023-03-01T05:14:01;8.00;;;5.20;;
16478;SDS011;8350;52.316;10.530;2023-03-01T05:16:29;6.47;;;4.90;;
16478;SDS011;8350;52.316;10.530;2023-03-01T05:18:56;8.35;;;5.95;;
16478;SDS011;8350;52.316;10.530;2023-03-01T05:21:25;7.07;;;5.28;;
16478;SDS011;8350;52.316;10.530;2023-03-01T05:23:52;6.03;;;4.82;;
16478;SDS011;8350;52.316;10.530;2023-03-01T05:26:20;7.45;;;5.78;;
16478;SDS011;8350;52.316;10.530;2023-03-01T05:28:52;7.10;;;5.20;;
16478;SDS011;8350;52.316;10.530;2023-03-01T05:31:21;7.70;;;5.28;;
16478;SDS011;8350;52.316;10.530;2023-03-01T05:33:49;9.02;;;5.97;;
16478;SDS011;8350;52.316;10.530;2023-03-01T05:36:17;6.55;;;5.13;;
16478;SDS011;8350;52.316;10.530;2023-03-01T05:38:44;6.35;;;5.10;;
16478;SDS011;8350;52.316;10.530;2023-03-01T05:41:13;8.10;;;5.30;;
16478;SDS011;8350;52.316;10.530;2023-03-01T05:43:41;6.57;;;5.50;;
16478;SDS011;8350;52.316;10.530;2023-03-01T05:46:09;6.13;;;4.80;;
16478;SDS011;8350;52.316;10.530;2023-03-01T05:48:38;7.30;;;5.25;;
16478;SDS011;8350;52.316;10.530;2023-03-01T05:51:06;7.28;;;5.57;;
16478;SDS011;8350;52.316;10.530;2023-03-01T05:53:33;6.88;;;5.25;;
16478;SDS011;8350;52.316;10.530;2023-03-01T05:56:02;5.93;;;4.88;;
16478;SDS011;8350;52.316;10.530;2023-03-01T05:58:29;9.75;;;6.07;;
16478;SDS011;8350;52.316;10.530;2023-03-01T06:00:56;10.77;;;6.07;;
16478;SDS011;8350;52.316;10.530;2023-03-01T06:03:23;8.35;;;6.13;;
16478;SDS011;8350;52.316;10.530;2023-03-01T06:05:49;7.28;;;6.13;;
16478;SDS011;8350;52.316;10.530;2023-03-01T06:08:23;9.13;;;6.03;;
16478;SDS011;8350;52.316;10.530;2023-03-01T06:10:52;8.10;;;6.63;;
16478;SDS011;8350;52.316;10.530;2023-03-01T06:13:18;8.90;;;6.45;;
16478;SDS011;8350;52.316;10.530;2023-03-01T06:15:45;9.70;;;7.05;;
16478;SDS011;8350;52.316;10.530;2023-03-01T06:18:12;9.40;;;6.78;;
16478;SDS011;8350;52.316;10.530;2023-03-01T06:20:39;9.70;;;7.00;;
16478;SDS011;8350;52.316;10.530;2023-03-01T06:23:06;9.35;;;6.47;;
16478;SDS011;8350;52.316;10.530;2023-03-01T06:25:34;11.25;;;6.97;;
16478;SDS011;8350;52.316;10.530;2023-03-01T06:28:01;9.05;;;6.35;;
16478;SDS011;8350;52.316;10.530;2023-03-01T06:30:29;9.45;;;6.90;;
16478;SDS011;8350;52.316;10.530;2023-03-01T06:32:57;8.40;;;6.63;;
16478;SDS011;8350;52.316;10.530;2023-03-01T06:35:26;8.95;;;6.38;;
16478;SDS011;8350;52.316;10.530;2023-03-01T06:37:55;9.63;;;5.90;;
16478;SDS011;8350;52.316;10.530;2023-03-01T06:40:22;11.18;;;6.97;;
16478;SDS011;8350;52.316;10.530;2023-03-01T06:42:50;12.98;;;7.75;;
16478;SDS011;8350;52.316;10.530;2023-03-01T06:45:18;12.68;;;6.97;;
16478;SDS011;8350;52.316;10.530;2023-03-01T06:47:45;10.00;;;7.13;;
16478;SDS011;8350;52.316;10.530;2023-03-01T06:50:13;10.70;;;7.72;;
16478;SDS011;8350;52.316;10.530;2023-03-01T06:52:40;9.63;;;7.07;;
16478;SDS011;8350;52.316;10.530;2023-03-01T06:55:09;11.90;;;7.50;;
16478;SDS011;8350;52.316;10.530;2023-03-01T06:57:36;9.93;;;7.00;;
16478;SDS011;8350;52.316;10.530;2023-03-01T07:00:07;8.30;;;6.80;;
16478;SDS011;8350;52.316;10.530;2023-03-01T07:02:35;9.95;;;6.63;;
16478;SDS011;8350;52.316;10.530;2023-03-01T07:05:02;8.40;;;6.70;;
16478;SDS011;8350;52.316;10.530;2023-03-01T07:07:29;9.02;;;6.28;;
16478;SDS011;8350;52.316;10.530;2023-03-01T07:10:02;12.27;;;7.30;;
16478;SDS011;8350;52.316;10.530;2023-03-01T07:12:29;9.73;;;7.22;;
16478;SDS011;8350;52.316;10.530;2023-03-01T07:14:56;10.32;;;7.47;;
16478;SDS011;8350;52.316;10.530;2023-03-01T07:17:25;9.13;;;7.00;;
16478;SDS011;8350;52.316;10.530;2023-03-01T07:19:52;9.75;;;7.63;;
16478;SDS011;8350;52.316;10.530;2023-03-01T07:22:19;8.85;;;7.30;;
16478;SDS011;8350;52.316;10.530;2023-03-01T07:24:46;11.35;;;7.63;;
16478;SDS011;8350;52.316;10.530;2023-03-01T07:27:13;12.23;;;7.78;;
16478;SDS011;8350;52.316;10.530;2023-03-01T07:29:40;10.35;;;7.97;;
16478;SDS011;8350;52.316;10.530;2023-03-01T07:34:43;12.00;;;7.25;;
16478;SDS011;8350;52.316;10.530;2023-03-01T07:37:10;10.88;;;6.78;;
16478;SDS011;8350;52.316;10.530;2023-03-01T07:39:37;11.65;;;7.75;;
16478;SDS011;8350;52.316;10.530;2023-03-01T07:42:04;11.95;;;7.78;;
16478;SDS011;8350;52.316;10.530;2023-03-01T07:44:31;13.70;;;7.50;;
16478;SDS011;8350;52.316;10.530;2023-03-01T07:46:59;8.55;;;6.95;;
16478;SDS011;8350;52.316;10.530;2023-03-01T07:49:26;8.48;;;7.50;;
16478;SDS011;8350;52.316;10.530;2023-03-01T07:51:58;11.23;;;8.00;;
16478;SDS011;8350;52.316;10.530;2023-03-01T07:54:27;9.73;;;8.50;;
16478;SDS011;8350;52.316;10.530;2023-03-01T07:56:54;12.27;;;8.07;;
16478;SDS011;8350;52.316;10.530;2023-03-01T07:59:22;11.10;;;8.80;;
16478;SDS011;8350;52.316;10.530;2023-03-01T08:01:53;10.82;;;7.97;;
16478;SDS011;8350;52.316;10.530;2023-03-01T08:04:21;12.75;;;8.50;;
16478;SDS011;8350;52.316;10.530;2023-03-01T08:06:49;11.02;;;7.93;;
16478;SDS011;8350;52.316;10.530;2023-03-01T08:09:18;12.45;;;7.90;;
16478;SDS011;8350;52.316;10.530;2023-03-01T08:11:45;11.38;;;8.43;;
16478;SDS011;8350;52.316;10.530;2023-03-01T08:14:11;7.65;;;6.35;;
16478;SDS011;8350;52.316;10.530;2023-03-01T08:16:38;7.72;;;6.05;;
16478;SDS011;8350;52.316;10.530;2023-03-01T08:19:05;8.57;;;6.32;;
16478;SDS011;8350;52.316;10.530;2023-03-01T08:21:32;8.38;;;5.95;;
16478;SDS011;8350;52.316;10.530;2023-03-01T08:24:00;7.28;;;5.55;;
16478;SDS011;8350;52.316;10.530;2023-03-01T08:26:29;7.75;;;5.30;;
16478;SDS011;8350;52.316;10.530;2023-03-01T08:28:56;7.32;;;5.32;;
16478;SDS011;8350;52.316;10.530;2023-03-01T08:31:24;6.45;;;5.43;;
16478;SDS011;8350;52.316;10.530;2023-03-01T08:33:53;6.78;;;5.53;;
16478;SDS011;8350;52.316;10.530;2023-03-01T08:36:22;6.72;;;4.72;;
16478;SDS011;8350;52.316;10.530;2023-03-01T08:38:49;4.90;;;4.20;;
16478;SDS011;8350;52.316;10.530;2023-03-01T08:41:20;5.93;;;4.43;;
16478;SDS011;8350;52.316;10.530;2023-03-01T08:43:48;5.95;;;5.00;;
16478;SDS011;8350;52.316;10.530;2023-03-01T08:46:16;5.82;;;5.22;;
16478;SDS011;8350;52.316;10.530;2023-03-01T08:48:42;6.95;;;5.05;;
16478;SDS011;8350;52.316;10.530;2023-03-01T08:51:10;5.78;;;4.53;;
16478;SDS011;8350;52.316;10.530;2023-03-01T08:53:38;5.82;;;4.32;;
16478;SDS011;8350;52.316;10.530;2023-03-01T08:56:05;5.40;;;3.65;;
16478;SDS011;8350;52.316;10.530;2023-03-01T08:58:33;6.15;;;4.82;;
16478;SDS011;8350;52.316;10.530;2023-03-01T09:01:04;5.05;;;4.55;;
16478;SDS011;8350;52.316;10.530;2023-03-01T09:03:33;5.03;;;4.35;;
16478;SDS011;8350;52.316;10.530;2023-03-01T09:06:00;5.35;;;4.32;;
16478;SDS011;8350;52.316;10.530;2023-03-01T09:08:27;8.27;;;4.18;;
16478;SDS011;8350;52.316;10.530;2023-03-01T09:10:54;4.63;;;4.18;;
16478;SDS011;8350;52.316;10.530;2023-03-01T09:13:21;6.72;;;3.90;;
16478;SDS011;8350;52.316;10.530;2023-03-01T09:15:49;9.23;;;4.15;;
16478;SDS011;8350;52.316;10.530;2023-03-01T09:18:18;4.70;;;4.30;;
16478;SDS011;8350;52.316;10.530;2023-03-01T09:20:44;5.97;;;4.07;;
16478;SDS011;8350;52.316;10.530;2023-03-01T09:23:11;4.93;;;3.80;;
16478;SDS011;8350;52.316;10.530;2023-03-01T09:25:40;5.85;;;4.57;;
16478;SDS011;8350;52.316;10.530;2023-03-01T09:28:10;6.32;;;4.00;;
16478;SDS011;8350;52.316;10.530;2023-03-01T09:30:37;6.28;;;3.78;;
16478;SDS011;8350;52.316;10.530;2023-03-01T09:33:04;4.93;;;4.47;;
16478;SDS011;8350;52.316;10.530;2023-03-01T09:35:32;5.35;;;4.20;;
16478;SDS011;8350;52.316;10.530;2023-03-01T09:37:59;8.93;;;4.28;;
16478;SDS011;8350;52.316;10.530;2023-03-01T09:40:26;7.32;;;4.93;;
16478;SDS011;8350;52.316;10.530;2023-03-01T09:42:54;6.25;;;4.47;;
16478;SDS011;8350;52.316;10.530;2023-03-01T09:45:29;7.28;;;4.80;;
16478;SDS011;8350;52.316;10.530;2023-03-01T09:48:01;4.60;;;3.80;;
16478;SDS011;8350;52.316;10.530;2023-03-01T09:50:33;6.43;;;4.28;;
16478;SDS011;8350;52.316;10.530;2023-03-01T09:53:05;5.30;;;4.47;;
16478;SDS011;8350;52.316;10.530;2023-03-01T09:55:37;5.65;;;4.43;;
16478;SDS011;8350;52.316;10.530;2023-03-01T09:58:25;5.10;;;4.00;;
16478;SDS011;8350;52.316;10.530;2023-03-01T10:00:58;4.93;;;4.10;;
16478;SDS011;8350;52.316;10.530;2023-03-01T10:03:31;6.70;;;4.20;;
16478;SDS011;8350;52.316;10.530;2023-03-01T10:06:08;5.07;;;3.88;;
16478;SDS011;8350;52.316;10.530;2023-03-01T10:08:40;8.93;;;4.40;;
16478;SDS011;8350;52.316;10.530;2023-03-01T10:11:17;7.45;;;3.90;;
16478;SDS011;8350;52.316;10.530;2023-03-01T10:13:48;5.68;;;4.18;;
16478;SDS011;8350;52.316;10.530;2023-03-01T10:16:20;5.70;;;3.92;;
16478;SDS011;8350;52.316;10.530;2023-03-01T10:18:51;7.57;;;3.97;;
16478;SDS011;8350;52.316;10.530;2023-03-01T10:21:25;4.68;;;4.20;;
16478;SDS011;8350;52.316;10.530;2023-03-01T10:23:54;4.22;;;3.65;;
16478;SDS011;8350;52.316;10.530;2023-03-01T10:26:28;6.55;;;4.00;;
16478;SDS011;8350;52.316;10.530;2023-03-01T10:29:06;6.75;;;4.05;;
16478;SDS011;8350;52.316;10.530;2023-03-01T10:31:37;4.88;;;3.80;;
16478;SDS011;8350;52.316;10.530;2023-03-01T10:34:08;5.38;;;3.65;;
16478;SDS011;8350;52.316;10.530;2023-03-01T10:36:39;4.50;;;3.67;;
16478;SDS011;8350;52.316;10.530;2023-03-01T10:39:13;5.13;;;3.83;;
16478;SDS011;8350;52.316;10.530;2023-03-01T10:41:52;5.13;;;3.85;;
16478;SDS011;8350;52.316;10.530;2023-03-01T10:44:36;6.05;;;3.70;;
16478;SDS011;8350;52.316;10.530;2023-03-01T10:47:12;4.20;;;3.70;;
16478;SDS011;8350;52.316;10.530;2023-03-01T10:49:51;5.38;;;3.40;;
16478;SDS011;8350;52.316;10.530;2023-03-01T10:52:28;4.72;;;3.55;;
16478;SDS011;8350;52.316;10.530;2023-03-01T10:55:01;3.40;;;3.05;;
16478;SDS011;8350;52.316;10.530;2023-03-01T10:57:32;4.38;;;2.92;;
16478;SDS011;8350;52.316;10.530;2023-03-01T11:00:15;4.97;;;3.65;;
16478;SDS011;8350;52.316;10.530;2023-03-01T11:02:47;4.75;;;3.40;;
16478;SDS011;8350;52.316;10.530;2023-03-01T11:05:20;3.83;;;3.30;;
16478;SDS011;8350;52.316;10.530;2023-03-01T11:07:52;7.28;;;4.13;;
16478;SDS011;8350;52.316;10.530;2023-03-01T11:10:23;4.20;;;3.55;;
16478;SDS011;8350;52.316;10.530;2023-03-01T11:12:51;3.95;;;3.35;;
16478;SDS011;8350;52.316;10.530;2023-03-01T11:15:32;3.47;;;3.17;;
16478;SDS011;8350;52.316;10.530;2023-03-01T11:17:58;4.60;;;4.00;;
16478;SDS011;8350;52.316;10.530;2023-03-01T11:20:28;3.78;;;3.38;;
16478;SDS011;8350;52.316;10.530;2023-03-01T11:22:59;3.85;;;3.20;;
16478;SDS011;8350;52.316;10.530;2023-03-01T11:25:31;3.88;;;3.47;;
16478;SDS011;8350;52.316;10.530;2023-03-01T11:28:02;4.93;;;3.90;;
16478;SDS011;8350;52.316;10.530;2023-03-01T11:30:31;5.22;;;3.83;;
16478;SDS011;8350;52.316;10.530;2023-03-01T11:33:05;4.03;;;3.63;;
16478;SDS011;8350;52.316;10.530;2023-03-01T11:35:41;4.20;;;2.92;;
16478;SDS011;8350;52.316;10.530;2023-03-01T11:38:17;4.22;;;3.15;;
16478;SDS011;8350;52.316;10.530;2023-03-01T11:40:49;4.70;;;3.17;;
16478;SDS011;8350;52.316;10.530;2023-03-01T11:43:26;4.32;;;3.30;;
16478;SDS011;8350;52.316;10.530;2023-03-01T11:46:13;3.30;;;2.95;;
16478;SDS011;8350;52.316;10.530;2023-03-01T11:48:57;4.70;;;3.55;;
16478;SDS011;8350;52.316;10.530;2023-03-01T11:51:40;5.07;;;3.58;;
16478;SDS011;8350;52.316;10.530;2023-03-01T11:54:18;3.95;;;3.50;;
16478;SDS011;8350;52.316;10.530;2023-03-01T11:56:54;3.85;;;3.38;;
16478;SDS011;8350;52.316;10.530;2023-03-01T12:08:29;4.72;;;3.20;;
16478;SDS011;8350;52.316;10.530;2023-03-01T12:11:06;3.47;;;3.17;;
16478;SDS011;8350;52.316;10.530;2023-03-01T12:16:56;3.53;;;3.10;;
16478;SDS011;8350;52.316;10.530;2023-03-01T12:19:58;5.18;;;3.65;;
16478;SDS011;8350;52.316;10.530;2023-03-01T12:22:37;4.47;;;3.78;;
16478;SDS011;8350;52.316;10.530;2023-03-01T12:31:23;5.70;;;3.42;;
16478;SDS011;8350;52.316;10.530;2023-03-01T12:34:21;4.32;;;3.60;;
16478;SDS011;8350;52.316;10.530;2023-03-01T12:36:59;5.10;;;3.78;;
16478;SDS011;8350;52.316;10.530;2023-03-01T12:39:45;4.32;;;3.40;;
16478;SDS011;8350;52.316;10.530;2023-03-01T12:42:23;4.40;;;3.33;;
16478;SDS011;8350;52.316;10.530;2023-03-01T12:45:05;4.35;;;3.38;;
16478;SDS011;8350;52.316;10.530;2023-03-01T12:48:04;3.22;;;2.92;;
16478;SDS011;8350;52.316;10.530;2023-03-01T12:50:42;4.13;;;2.85;;
16478;SDS011;8350;52.316;10.530;2023-03-01T12:53:17;3.42;;;3.05;;
16478;SDS011;8350;52.316;10.530;2023-03-01T12:55:50;5.25;;;3.72;;
16478;SDS011;8350;52.316;10.530;2023-03-01T12:58:23;4.20;;;3.60;;
16478;SDS011;8350;52.316;10.530;2023-03-01T13:01:04;5.68;;;3.75;;
16478;SDS011;8350;52.316;10.530;2023-03-01T13:03:44;4.78;;;3.97;;
16478;SDS011;8350;52.316;10.530;2023-03-01T13:06:24;4.03;;;3.53;;
16478;SDS011;8350;52.316;10.530;2023-03-01T13:11:55;4.07;;;3.65;;
16478;SDS011;8350;52.316;10.530;2023-03-01T13:14:34;4.15;;;3.17;;
16478;SDS011;8350;52.316;10.530;2023-03-01T13:17:07;3.72;;;3.42;;
16478;SDS011;8350;52.316;10.530;2023-03-01T13:19:58;5.55;;;3.90;;
16478;SDS011;8350;52.316;10.530;2023-03-01T13:22:26;4.47;;;3.20;;
16478;SDS011;8350;52.316;10.530;2023-03-01T13:25:10;5.80;;;3.10;;
16478;SDS011;8350;52.316;10.530;2023-03-01T13:27:40;4.15;;;3.38;;
16478;SDS011;8350;52.316;10.530;2023-03-01T13:36:11;3.50;;;2.97;;
16478;SDS011;8350;52.316;10.530;2023-03-01T13:38:55;3.83;;;3.42;;
16478;SDS011;8350;52.316;10.530;2023-03-01T13:44:18;5.47;;;3.50;;
16478;SDS011;8350;52.316;10.530;2023-03-01T13:46:51;3.55;;;3.05;;
16478;SDS011;8350;52.316;10.530;2023-03-01T13:49:21;3.97;;;2.75;;
16478;SDS011;8350;52.316;10.530;2023-03-01T13:51:51;4.22;;;3.10;;
16478;SDS011;8350;52.316;10.530;2023-03-01T13:54:20;3.63;;;2.80;;
16478;SDS011;8350;52.316;10.530;2023-03-01T13:56:51;3.95;;;2.67;;
16478;SDS011;8350;52.316;10.530;2023-03-01T13:59:19;3.17;;;2.45;;
16478;SDS011;8350;52.316;10.530;2023-03-01T14:01:51;2.67;;;2.47;;
16478;SDS011;8350;52.316;10.530;2023-03-01T14:04:24;3.45;;;3.15;;
16478;SDS011;8350;52.316;10.530;2023-03-01T14:07:08;4.57;;;3.38;;
16478;SDS011;8350;52.316;10.530;2023-03-01T14:09:36;4.25;;;3.20;;
16478;SDS011;8350;52.316;10.530;2023-03-01T14:12:18;5.18;;;3.10;;
16478;SDS011;8350;52.316;10.530;2023-03-01T14:14:54;3.85;;;2.72;;
16478;SDS011;8350;52.316;10.530;2023-03-01T14:20:28;3.75;;;2.67;;
16478;SDS011;8350;52.316;10.530;2023-03-01T14:22:57;3.28;;;2.72;;
16478;SDS011;8350;52.316;10.530;2023-03-01T14:25:27;3.65;;;3.10;;
16478;SDS011;8350;52.316;10.530;2023-03-01T14:28:16;3.10;;;2.80;;
16478;SDS011;8350;52.316;10.530;2023-03-01T14:30:47;3.58;;;2.80;;
16478;SDS011;8350;52.316;10.530;2023-03-01T14:33:19;2.80;;;2.53;;
16478;SDS011;8350;52.316;10.530;2023-03-01T14:35:54;3.17;;;2.40;;
16478;SDS011;8350;52.316;10.530;2023-03-01T14:38:23;2.30;;;2.10;;
16478;SDS011;8350;52.316;10.530;2023-03-01T14:40:56;3.55;;;2.15;;
16478;SDS011;8350;52.316;10.530;2023-03-01T14:43:25;2.25;;;2.00;;
16478;SDS011;8350;52.316;10.530;2023-03-01T14:45:55;3.40;;;2.78;;
16478;SDS011;8350;52.316;10.530;2023-03-01T14:48:22;3.00;;;2.15;;
16478;SDS011;8350;52.316;10.530;2023-03-01T14:50:49;2.58;;;2.38;;
16478;SDS011;8350;52.316;10.530;2023-03-01T14:53:19;4.68;;;2.55;;
16478;SDS011;8350;52.316;10.530;2023-03-01T14:55:50;2.40;;;2.20;;
16478;SDS011;8350;52.316;10.530;2023-03-01T14:58:20;4.25;;;2.22;;
16478;SDS011;8350;52.316;10.530;2023-03-01T15:00:49;3.20;;;2.90;;
16478;SDS011;8350;52.316;10.530;2023-03-01T15:03:20;2.78;;;2.33;;
16478;SDS011;8350;52.316;10.530;2023-03-01T15:05:51;3.05;;;2.53;;
16478;SDS011;8350;52.316;10.530;2023-03-01T15:08:21;2.70;;;2.33;;
16478;SDS011;8350;52.316;10.530;2023-03-01T15:10:57;3.10;;;2.78;;
16478;SDS011;8350;52.316;10.530;2023-03-01T15:13:28;2.70;;;2.50;;
16478;SDS011;8350;52.316;10.530;2023-03-01T15:16:01;2.55;;;2.35;;
16478;SDS011;8350;52.316;10.530;2023-03-01T15:18:31;2.63;;;2.42;;
16478;SDS011;8350;52.316;10.530;2023-03-01T15:21:05;3.47;;;2.95;;
16478;SDS011;8350;52.316;10.530;2023-03-01T15:23:35;3.78;;;3.05;;
16478;SDS011;8350;52.316;10.530;2023-03-01T15:26:04;3.67;;;3.28;;
16478;SDS011;8350;52.316;10.530;2023-03-01T15:28:32;3.38;;;2.80;;
16478;SDS011;8350;52.316;10.530;2023-03-01T15:31:02;3.83;;;2.70;;
16478;SDS011;8350;52.316;10.530;2023-03-01T15:33:41;2.97;;;2.42;;
16478;SDS011;8350;52.316;10.530;2023-03-01T15:42:03;2.83;;;2.50;;
16478;SDS011;8350;52.316;10.530;2023-03-01T15:44:32;3.60;;;2.10;;
16478;SDS011;8350;52.316;10.530;2023-03-01T15:47:00;2.97;;;2.53;;